Terminal Aerodrome Forecast
Issued by NWS

Home | Current Version | Previous Version | Text Only | Print | Product List | Glossary On
Versions: 1 2 3 4 5 6 7 8 9 10 11 12 13 14 15 16 17 18 19 20 21 22 23 24 25 26 27 28
914
FTUS43 KDVN 130520
TAFBRL
TAF
KBRL 130520Z 1306/1406 34010KT P6SM SKC
     FM131400 33004KT P6SM SCT250
     FM140300 13005KT P6SM OVC100 PROB30 1403/1406 5SM -SN OVC050=

USA.gov is the U.S. government's official web portal to all federal, state and local government web resources and services.